sensor_id;sensor_type;location;lat;lon;timestamp;temperature;humidity
1367;DHT22;16877;48.810;9.282;2023-02-28T00:01:08;14.10;35.60
1367;DHT22;16877;48.810;9.282;2023-02-28T00:03:36;14.10;35.60
1367;DHT22;16877;48.810;9.282;2023-02-28T00:06:09;14.10;35.70
1367;DHT22;16877;48.810;9.282;2023-02-28T00:08:36;14.10;35.80
1367;DHT22;16877;48.810;9.282;2023-02-28T00:11:05;14.10;36.00
1367;DHT22;16877;48.810;9.282;2023-02-28T00:13:37;14.10;35.70
1367;DHT22;16877;48.810;9.282;2023-02-28T00:16:13;14.00;35.80
1367;DHT22;16877;48.810;9.282;2023-02-28T00:18:41;14.00;35.70
1367;DHT22;16877;48.810;9.282;2023-02-28T00:21:14;14.00;35.70
1367;DHT22;16877;48.810;9.282;2023-02-28T00:23:42;14.00;35.70
1367;DHT22;16877;48.810;9.282;2023-02-28T00:26:09;14.00;35.80
1367;DHT22;16877;48.810;9.282;2023-02-28T00:28:38;14.00;35.70
1367;DHT22;16877;48.810;9.282;2023-02-28T00:31:18;13.90;35.90
1367;DHT22;16877;48.810;9.282;2023-02-28T00:33:45;13.90;36.00
1367;DHT22;16877;48.810;9.282;2023-02-28T00:36:14;13.90;36.00
1367;DHT22;16877;48.810;9.282;2023-02-28T00:38:41;13.90;35.80
1367;DHT22;16877;48.810;9.282;2023-02-28T00:41:09;13.90;36.00
1367;DHT22;16877;48.810;9.282;2023-02-28T00:43:38;13.90;36.10
1367;DHT22;16877;48.810;9.282;2023-02-28T00:46:06;13.90;36.00
1367;DHT22;16877;48.810;9.282;2023-02-28T00:48:34;13.90;36.20
1367;DHT22;16877;48.810;9.282;2023-02-28T00:51:02;13.90;36.20
1367;DHT22;16877;48.810;9.282;2023-02-28T00:53:29;13.90;36.20
1367;DHT22;16877;48.810;9.282;2023-02-28T00:55:58;13.80;36.10
1367;DHT22;16877;48.810;9.282;2023-02-28T00:58:26;13.80;36.10
1367;DHT22;16877;48.810;9.282;2023-02-28T01:00:59;13.80;36.30
1367;DHT22;16877;48.810;9.282;2023-02-28T01:03:26;13.80;36.20
1367;DHT22;16877;48.810;9.282;2023-02-28T01:05:53;13.80;36.00
1367;DHT22;16877;48.810;9.282;2023-02-28T01:08:21;13.80;36.00
1367;DHT22;16877;48.810;9.282;2023-02-28T01:10:48;13.80;35.90
1367;DHT22;16877;48.810;9.282;2023-02-28T01:13:16;13.80;35.90
1367;DHT22;16877;48.810;9.282;2023-02-28T01:15:46;13.80;36.00
1367;DHT22;16877;48.810;9.282;2023-02-28T01:18:17;13.80;35.90
1367;DHT22;16877;48.810;9.282;2023-02-28T01:20:45;13.80;36.00
1367;DHT22;16877;48.810;9.282;2023-02-28T01:23:13;13.80;36.20
1367;DHT22;16877;48.810;9.282;2023-02-28T01:25:40;13.80;37.00
1367;DHT22;16877;48.810;9.282;2023-02-28T01:28:07;13.80;36.50
1367;DHT22;16877;48.810;9.282;2023-02-28T01:30:35;13.80;36.50
1367;DHT22;16877;48.810;9.282;2023-02-28T01:33:03;13.80;36.50
1367;DHT22;16877;48.810;9.282;2023-02-28T01:35:34;13.70;36.30
1367;DHT22;16877;48.810;9.282;2023-02-28T01:38:01;13.70;36.40
1367;DHT22;16877;48.810;9.282;2023-02-28T01:40:29;13.70;36.60
1367;DHT22;16877;48.810;9.282;2023-02-28T01:42:56;13.70;36.60
1367;DHT22;16877;48.810;9.282;2023-02-28T01:45:26;13.70;36.40
1367;DHT22;16877;48.810;9.282;2023-02-28T01:47:57;13.70;36.50
1367;DHT22;16877;48.810;9.282;2023-02-28T01:50:28;13.70;36.50
1367;DHT22;16877;48.810;9.282;2023-02-28T01:53:00;13.70;36.60
1367;DHT22;16877;48.810;9.282;2023-02-28T01:55:29;13.70;36.60
1367;DHT22;16877;48.810;9.282;2023-02-28T01:57:59;13.70;36.60
1367;DHT22;16877;48.810;9.282;2023-02-28T02:00:28;13.70;36.90
1367;DHT22;16877;48.810;9.282;2023-02-28T02:03:06;13.70;36.90
1367;DHT22;16877;48.810;9.282;2023-02-28T02:05:36;13.70;36.90
1367;DHT22;16877;48.810;9.282;2023-02-28T02:08:08;13.60;36.70
1367;DHT22;16877;48.810;9.282;2023-02-28T02:10:41;13.60;36.70
1367;DHT22;16877;48.810;9.282;2023-02-28T02:13:21;13.60;36.80
1367;DHT22;16877;48.810;9.282;2023-02-28T02:15:56;13.60;36.60
1367;DHT22;16877;48.810;9.282;2023-02-28T02:18:32;13.60;36.70
1367;DHT22;16877;48.810;9.282;2023-02-28T02:21:27;13.60;36.80
1367;DHT22;16877;48.810;9.282;2023-02-28T02:24:20;13.60;37.00
1367;DHT22;16877;48.810;9.282;2023-02-28T02:27:13;13.60;37.10
1367;DHT22;16877;48.810;9.282;2023-02-28T02:36:13;13.60;37.30
1367;DHT22;16877;48.810;9.282;2023-02-28T02:38:49;13.60;37.30
1367;DHT22;16877;48.810;9.282;2023-02-28T02:41:24;13.60;37.30
1367;DHT22;16877;48.810;9.282;2023-02-28T02:43:56;13.60;37.30
1367;DHT22;16877;48.810;9.282;2023-02-28T02:46:33;13.60;37.50
1367;DHT22;16877;48.810;9.282;2023-02-28T02:49:03;13.60;37.50
1367;DHT22;16877;48.810;9.282;2023-02-28T02:51:35;13.60;37.50
1367;DHT22;16877;48.810;9.282;2023-02-28T02:54:10;13.60;37.60
1367;DHT22;16877;48.810;9.282;2023-02-28T02:56:42;13.60;37.70
1367;DHT22;16877;48.810;9.282;2023-02-28T02:59:13;13.60;38.00
1367;DHT22;16877;48.810;9.282;2023-02-28T03:01:49;13.50;37.90
1367;DHT22;16877;48.810;9.282;2023-02-28T03:04:20;13.60;37.90
1367;DHT22;16877;48.810;9.282;2023-02-28T03:06:51;13.60;38.20
1367;DHT22;16877;48.810;9.282;2023-02-28T03:09:20;13.60;37.90
1367;DHT22;16877;48.810;9.282;2023-02-28T03:11:48;13.60;37.80
1367;DHT22;16877;48.810;9.282;2023-02-28T03:14:36;13.60;38.00
1367;DHT22;16877;48.810;9.282;2023-02-28T03:17:23;13.60;38.00
1367;DHT22;16877;48.810;9.282;2023-02-28T03:20:01;13.60;38.00
1367;DHT22;16877;48.810;9.282;2023-02-28T03:22:53;13.60;38.00
1367;DHT22;16877;48.810;9.282;2023-02-28T03:25:32;13.60;38.20
1367;DHT22;16877;48.810;9.282;2023-02-28T03:28:08;13.50;38.20
1367;DHT22;16877;48.810;9.282;2023-02-28T03:30:43;13.50;38.30
1367;DHT22;16877;48.810;9.282;2023-02-28T03:33:17;13.50;38.10
1367;DHT22;16877;48.810;9.282;2023-02-28T03:35:50;13.60;38.10
1367;DHT22;16877;48.810;9.282;2023-02-28T03:38:26;13.60;38.10
1367;DHT22;16877;48.810;9.282;2023-02-28T03:40:59;13.60;38.10
1367;DHT22;16877;48.810;9.282;2023-02-28T03:43:49;13.60;38.30
1367;DHT22;16877;48.810;9.282;2023-02-28T03:46:20;13.60;38.30
1367;DHT22;16877;48.810;9.282;2023-02-28T03:48:52;13.60;38.40
1367;DHT22;16877;48.810;9.282;2023-02-28T03:51:23;13.60;38.30
1367;DHT22;16877;48.810;9.282;2023-02-28T03:54:11;13.60;38.30
1367;DHT22;16877;48.810;9.282;2023-02-28T03:56:42;13.50;38.30
1367;DHT22;16877;48.810;9.282;2023-02-28T03:59:14;13.60;38.50
1367;DHT22;16877;48.810;9.282;2023-02-28T04:01:43;13.50;38.40
1367;DHT22;16877;48.810;9.282;2023-02-28T04:04:12;13.50;38.40
1367;DHT22;16877;48.810;9.282;2023-02-28T04:06:41;13.50;38.60
1367;DHT22;16877;48.810;9.282;2023-02-28T04:09:13;13.50;38.50
1367;DHT22;16877;48.810;9.282;2023-02-28T04:11:42;13.50;38.40
1367;DHT22;16877;48.810;9.282;2023-02-28T04:14:11;13.50;38.30
1367;DHT22;16877;48.810;9.282;2023-02-28T04:16:41;13.50;38.50
1367;DHT22;16877;48.810;9.282;2023-02-28T04:19:10;13.50;38.60
1367;DHT22;16877;48.810;9.282;2023-02-28T04:21:39;13.50;39.00
1367;DHT22;16877;48.810;9.282;2023-02-28T04:24:09;13.50;38.40
1367;DHT22;16877;48.810;9.282;2023-02-28T04:26:43;13.50;38.50
1367;DHT22;16877;48.810;9.282;2023-02-28T04:29:12;13.50;38.50
1367;DHT22;16877;48.810;9.282;2023-02-28T04:31:40;13.50;38.60
1367;DHT22;16877;48.810;9.282;2023-02-28T04:34:07;13.50;38.70
1367;DHT22;16877;48.810;9.282;2023-02-28T04:36:35;13.50;38.80
1367;DHT22;16877;48.810;9.282;2023-02-28T04:39:02;13.50;38.80
1367;DHT22;16877;48.810;9.282;2023-02-28T04:41:29;13.40;38.70
1367;DHT22;16877;48.810;9.282;2023-02-28T04:43:59;13.40;38.70
1367;DHT22;16877;48.810;9.282;2023-02-28T04:46:26;13.40;38.70
1367;DHT22;16877;48.810;9.282;2023-02-28T04:48:56;13.40;38.80
1367;DHT22;16877;48.810;9.282;2023-02-28T04:51:27;13.40;38.90
1367;DHT22;16877;48.810;9.282;2023-02-28T04:53:59;13.40;38.80
1367;DHT22;16877;48.810;9.282;2023-02-28T04:56:27;13.40;38.90
1367;DHT22;16877;48.810;9.282;2023-02-28T04:59:01;13.40;38.70
1367;DHT22;16877;48.810;9.282;2023-02-28T05:01:31;13.40;38.80
1367;DHT22;16877;48.810;9.282;2023-02-28T05:04:00;13.40;38.80
1367;DHT22;16877;48.810;9.282;2023-02-28T05:06:32;13.30;38.80
1367;DHT22;16877;48.810;9.282;2023-02-28T05:09:00;13.30;38.90
1367;DHT22;16877;48.810;9.282;2023-02-28T05:11:29;13.30;39.00
1367;DHT22;16877;48.810;9.282;2023-02-28T05:14:10;13.30;39.00
1367;DHT22;16877;48.810;9.282;2023-02-28T05:16:40;13.30;39.00
1367;DHT22;16877;48.810;9.282;2023-02-28T05:19:10;13.30;39.00
1367;DHT22;16877;48.810;9.282;2023-02-28T05:21:39;13.30;39.00
1367;DHT22;16877;48.810;9.282;2023-02-28T05:24:11;13.30;39.20
1367;DHT22;16877;48.810;9.282;2023-02-28T05:26:41;13.30;39.00
1367;DHT22;16877;48.810;9.282;2023-02-28T05:29:17;13.30;39.00
1367;DHT22;16877;48.810;9.282;2023-02-28T05:31:45;13.30;39.00
1367;DHT22;16877;48.810;9.282;2023-02-28T05:34:13;13.30;39.10
1367;DHT22;16877;48.810;9.282;2023-02-28T05:36:42;13.30;39.10
1367;DHT22;16877;48.810;9.282;2023-02-28T05:39:15;13.30;39.10
1367;DHT22;16877;48.810;9.282;2023-02-28T05:41:43;13.30;39.00
1367;DHT22;16877;48.810;9.282;2023-02-28T05:44:27;13.30;39.10
1367;DHT22;16877;48.810;9.282;2023-02-28T05:46:55;13.30;39.30
1367;DHT22;16877;48.810;9.282;2023-02-28T05:49:24;13.30;39.30
1367;DHT22;16877;48.810;9.282;2023-02-28T05:51:56;13.30;39.30
1367;DHT22;16877;48.810;9.282;2023-02-28T05:54:27;13.30;39.20
1367;DHT22;16877;48.810;9.282;2023-02-28T05:56:55;13.30;39.30
1367;DHT22;16877;48.810;9.282;2023-02-28T05:59:29;13.30;39.30
1367;DHT22;16877;48.810;9.282;2023-02-28T06:02:00;13.30;39.10
1367;DHT22;16877;48.810;9.282;2023-02-28T06:04:35;13.30;39.10
1367;DHT22;16877;48.810;9.282;2023-02-28T06:07:05;13.30;39.10
1367;DHT22;16877;48.810;9.282;2023-02-28T06:09:35;13.30;39.20
1367;DHT22;16877;48.810;9.282;2023-02-28T06:12:06;13.30;39.20
1367;DHT22;16877;48.810;9.282;2023-02-28T06:14:37;13.30;39.30
1367;DHT22;16877;48.810;9.282;2023-02-28T06:17:05;13.30;39.30
1367;DHT22;16877;48.810;9.282;2023-02-28T06:19:33;13.30;39.30
1367;DHT22;16877;48.810;9.282;2023-02-28T06:22:02;13.40;39.40
1367;DHT22;16877;48.810;9.282;2023-02-28T06:24:30;13.40;39.50
1367;DHT22;16877;48.810;9.282;2023-02-28T06:26:59;13.30;39.50
1367;DHT22;16877;48.810;9.282;2023-02-28T06:29:30;13.40;39.40
1367;DHT22;16877;48.810;9.282;2023-02-28T06:32:01;13.40;39.50
1367;DHT22;16877;48.810;9.282;2023-02-28T06:34:29;13.40;39.30
1367;DHT22;16877;48.810;9.282;2023-02-28T06:37:10;13.40;39.50
1367;DHT22;16877;48.810;9.282;2023-02-28T06:39:51;13.40;39.40
1367;DHT22;16877;48.810;9.282;2023-02-28T06:42:24;13.40;39.40
1367;DHT22;16877;48.810;9.282;2023-02-28T06:44:55;13.40;39.60
1367;DHT22;16877;48.810;9.282;2023-02-28T06:47:26;13.40;39.40
1367;DHT22;16877;48.810;9.282;2023-02-28T06:49:59;13.40;39.50
1367;DHT22;16877;48.810;9.282;2023-02-28T06:52:28;13.40;39.50
1367;DHT22;16877;48.810;9.282;2023-02-28T06:54:56;13.50;39.50
1367;DHT22;16877;48.810;9.282;2023-02-28T06:57:28;13.50;39.50
1367;DHT22;16877;48.810;9.282;2023-02-28T06:59:59;13.50;39.50
1367;DHT22;16877;48.810;9.282;2023-02-28T07:02:29;13.50;39.60
1367;DHT22;16877;48.810;9.282;2023-02-28T07:04:57;13.60;39.60
1367;DHT22;16877;48.810;9.282;2023-02-28T07:07:25;13.60;39.50
1367;DHT22;16877;48.810;9.282;2023-02-28T07:09:53;13.60;39.60
1367;DHT22;16877;48.810;9.282;2023-02-28T07:12:20;13.60;39.60
1367;DHT22;16877;48.810;9.282;2023-02-28T07:14:48;13.60;39.70
1367;DHT22;16877;48.810;9.282;2023-02-28T07:17:15;13.60;39.60
1367;DHT22;16877;48.810;9.282;2023-02-28T07:19:44;13.60;39.60
1367;DHT22;16877;48.810;9.282;2023-02-28T07:22:12;13.70;39.70
1367;DHT22;16877;48.810;9.282;2023-02-28T07:24:54;13.70;39.60
1367;DHT22;16877;48.810;9.282;2023-02-28T07:27:32;13.70;39.50
1367;DHT22;16877;48.810;9.282;2023-02-28T07:30:00;13.70;39.50
1367;DHT22;16877;48.810;9.282;2023-02-28T07:32:29;13.70;39.40
1367;DHT22;16877;48.810;9.282;2023-02-28T07:35:18;13.70;39.30
1367;DHT22;16877;48.810;9.282;2023-02-28T07:37:50;13.70;39.30
1367;DHT22;16877;48.810;9.282;2023-02-28T07:40:17;13.70;39.40
1367;DHT22;16877;48.810;9.282;2023-02-28T07:42:44;13.70;39.40
1367;DHT22;16877;48.810;9.282;2023-02-28T07:45:12;13.70;39.40
1367;DHT22;16877;48.810;9.282;2023-02-28T07:47:41;13.70;39.20
1367;DHT22;16877;48.810;9.282;2023-02-28T07:50:13;13.70;39.20
1367;DHT22;16877;48.810;9.282;2023-02-28T07:52:42;13.70;39.50
1367;DHT22;16877;48.810;9.282;2023-02-28T07:55:10;13.70;39.40
1367;DHT22;16877;48.810;9.282;2023-02-28T07:57:39;13.70;39.30
1367;DHT22;16877;48.810;9.282;2023-02-28T08:00:09;14.40;55.30
1367;DHT22;16877;48.810;9.282;2023-02-28T08:02:38;14.80;52.80
1367;DHT22;16877;48.810;9.282;2023-02-28T08:05:07;14.90;47.90
1367;DHT22;16877;48.810;9.282;2023-02-28T08:07:36;14.90;44.60
1367;DHT22;16877;48.810;9.282;2023-02-28T08:10:05;14.80;43.20
1367;DHT22;16877;48.810;9.282;2023-02-28T08:12:33;14.70;42.40
1367;DHT22;16877;48.810;9.282;2023-02-28T08:15:00;14.70;41.60
1367;DHT22;16877;48.810;9.282;2023-02-28T08:17:27;14.60;41.30
1367;DHT22;16877;48.810;9.282;2023-02-28T08:19:55;14.50;40.70
1367;DHT22;16877;48.810;9.282;2023-02-28T08:22:25;14.50;40.50
1367;DHT22;16877;48.810;9.282;2023-02-28T08:24:55;14.50;40.10
1367;DHT22;16877;48.810;9.282;2023-02-28T08:27:23;14.40;39.90
1367;DHT22;16877;48.810;9.282;2023-02-28T08:29:50;14.40;39.80
1367;DHT22;16877;48.810;9.282;2023-02-28T08:32:18;14.40;39.50
1367;DHT22;16877;48.810;9.282;2023-02-28T08:34:45;14.40;39.60
1367;DHT22;16877;48.810;9.282;2023-02-28T08:37:13;14.40;39.40
1367;DHT22;16877;48.810;9.282;2023-02-28T08:39:40;14.30;39.00
1367;DHT22;16877;48.810;9.282;2023-02-28T08:42:10;14.30;38.90
1367;DHT22;16877;48.810;9.282;2023-02-28T08:44:37;14.30;38.90
1367;DHT22;16877;48.810;9.282;2023-02-28T08:47:06;14.30;42.10
1367;DHT22;16877;48.810;9.282;2023-02-28T08:49:34;14.40;41.10
1367;DHT22;16877;48.810;9.282;2023-02-28T08:52:01;14.40;40.10
1367;DHT22;16877;48.810;9.282;2023-02-28T08:54:30;14.40;40.10
1367;DHT22;16877;48.810;9.282;2023-02-28T08:57:00;14.40;39.80
1367;DHT22;16877;48.810;9.282;2023-02-28T08:59:29;14.30;39.60
1367;DHT22;16877;48.810;9.282;2023-02-28T09:01:56;14.30;39.70
1367;DHT22;16877;48.810;9.282;2023-02-28T09:04:24;14.30;39.90
1367;DHT22;16877;48.810;9.282;2023-02-28T09:06:52;14.40;40.20
1367;DHT22;16877;48.810;9.282;2023-02-28T09:09:27;14.40;40.10
1367;DHT22;16877;48.810;9.282;2023-02-28T09:11:56;14.30;40.00
1367;DHT22;16877;48.810;9.282;2023-02-28T09:14:23;14.40;40.50
1367;DHT22;16877;48.810;9.282;2023-02-28T09:16:52;14.40;40.30
1367;DHT22;16877;48.810;9.282;2023-02-28T09:19:20;14.40;40.70
1367;DHT22;16877;48.810;9.282;2023-02-28T09:21:48;14.50;40.50
1367;DHT22;16877;48.810;9.282;2023-02-28T09:24:30;14.50;40.70
1367;DHT22;16877;48.810;9.282;2023-02-28T09:26:58;14.60;41.20
1367;DHT22;16877;48.810;9.282;2023-02-28T09:29:29;14.60;41.20
1367;DHT22;16877;48.810;9.282;2023-02-28T09:31:59;14.60;41.30
1367;DHT22;16877;48.810;9.282;2023-02-28T09:34:27;14.70;41.20
1367;DHT22;16877;48.810;9.282;2023-02-28T09:36:57;14.70;41.00
1367;DHT22;16877;48.810;9.282;2023-02-28T09:39:28;14.70;40.90
1367;DHT22;16877;48.810;9.282;2023-02-28T09:42:03;14.80;40.60
1367;DHT22;16877;48.810;9.282;2023-02-28T09:44:36;14.80;40.60
1367;DHT22;16877;48.810;9.282;2023-02-28T09:47:13;14.80;40.70
1367;DHT22;16877;48.810;9.282;2023-02-28T09:49:45;14.90;41.00
1367;DHT22;16877;48.810;9.282;2023-02-28T09:52:16;14.90;40.70
1367;DHT22;16877;48.810;9.282;2023-02-28T09:54:45;15.00;40.60
1367;DHT22;16877;48.810;9.282;2023-02-28T09:57:17;15.00;40.30
1367;DHT22;16877;48.810;9.282;2023-02-28T10:00:01;15.10;40.30
1367;DHT22;16877;48.810;9.282;2023-02-28T10:05:49;15.20;40.00
1367;DHT22;16877;48.810;9.282;2023-02-28T10:08:22;15.20;40.10
1367;DHT22;16877;48.810;9.282;2023-02-28T10:10:58;15.20;40.20
1367;DHT22;16877;48.810;9.282;2023-02-28T10:13:32;15.30;41.10
1367;DHT22;16877;48.810;9.282;2023-02-28T10:16:18;15.40;40.70
1367;DHT22;16877;48.810;9.282;2023-02-28T10:18:50;15.50;40.50
1367;DHT22;16877;48.810;9.282;2023-02-28T10:21:24;15.70;40.20
1367;DHT22;16877;48.810;9.282;2023-02-28T10:24:01;15.90;40.20
1367;DHT22;16877;48.810;9.282;2023-02-28T10:26:31;16.10;40.30
1367;DHT22;16877;48.810;9.282;2023-02-28T10:28:59;16.20;39.90
1367;DHT22;16877;48.810;9.282;2023-02-28T10:31:28;16.30;39.70
1367;DHT22;16877;48.810;9.282;2023-02-28T10:33:56;16.30;39.40
1367;DHT22;16877;48.810;9.282;2023-02-28T10:36:25;16.30;39.00
1367;DHT22;16877;48.810;9.282;2023-02-28T10:38:54;16.40;38.70
1367;DHT22;16877;48.810;9.282;2023-02-28T10:41:29;16.50;38.80
1367;DHT22;16877;48.810;9.282;2023-02-28T10:44:18;16.70;39.20
1367;DHT22;16877;48.810;9.282;2023-02-28T10:47:01;16.90;39.60
1367;DHT22;16877;48.810;9.282;2023-02-28T10:49:29;17.20;39.70
1367;DHT22;16877;48.810;9.282;2023-02-28T10:52:01;17.20;39.00
1367;DHT22;16877;48.810;9.282;2023-02-28T10:54:31;17.30;38.50
1367;DHT22;16877;48.810;9.282;2023-02-28T10:57:19;17.50;38.40
1367;DHT22;16877;48.810;9.282;2023-02-28T10:59:53;17.90;38.80
1367;DHT22;16877;48.810;9.282;2023-02-28T11:02:34;18.30;39.20
1367;DHT22;16877;48.810;9.282;2023-02-28T11:05:23;18.70;39.30
1367;DHT22;16877;48.810;9.282;2023-02-28T11:07:54;19.20;39.10
1367;DHT22;16877;48.810;9.282;2023-02-28T11:10:25;19.30;38.80
1367;DHT22;16877;48.810;9.282;2023-02-28T11:12:55;19.60;37.80
1367;DHT22;16877;48.810;9.282;2023-02-28T11:15:25;19.80;37.20
1367;DHT22;16877;48.810;9.282;2023-02-28T11:17:57;20.10;37.20
1367;DHT22;16877;48.810;9.282;2023-02-28T11:20:28;20.60;37.00
1367;DHT22;16877;48.810;9.282;2023-02-28T11:22:59;20.90;36.00
1367;DHT22;16877;48.810;9.282;2023-02-28T11:25:31;21.30;35.80
1367;DHT22;16877;48.810;9.282;2023-02-28T11:28:00;21.60;35.70
1367;DHT22;16877;48.810;9.282;2023-02-28T11:30:35;21.90;35.30
1367;DHT22;16877;48.810;9.282;2023-02-28T11:33:22;22.20;35.70
1367;DHT22;16877;48.810;9.282;2023-02-28T11:35:51;22.60;34.40
1367;DHT22;16877;48.810;9.282;2023-02-28T11:38:36;22.90;34.40
1367;DHT22;16877;48.810;9.282;2023-02-28T11:41:24;23.30;34.50
1367;DHT22;16877;48.810;9.282;2023-02-28T11:44:02;23.70;34.20
1367;DHT22;16877;48.810;9.282;2023-02-28T11:46:38;24.00;33.60
1367;DHT22;16877;48.810;9.282;2023-02-28T11:49:20;24.40;33.30
1367;DHT22;16877;48.810;9.282;2023-02-28T11:51:55;24.70;33.10
1367;DHT22;16877;48.810;9.282;2023-02-28T11:54:46;25.00;33.00
1367;DHT22;16877;48.810;9.282;2023-02-28T11:57:35;25.40;32.50
1367;DHT22;16877;48.810;9.282;2023-02-28T12:00:33;25.70;33.00
1367;DHT22;16877;48.810;9.282;2023-02-28T12:03:11;26.00;32.80
1367;DHT22;16877;48.810;9.282;2023-02-28T12:05:45;26.20;32.40
1367;DHT22;16877;48.810;9.282;2023-02-28T12:08:26;26.40;40.70
1367;DHT22;16877;48.810;9.282;2023-02-28T12:11:07;26.60;40.00
1367;DHT22;16877;48.810;9.282;2023-02-28T12:13:46;26.90;40.20
1367;DHT22;16877;48.810;9.282;2023-02-28T12:16:27;27.30;39.30
1367;DHT22;16877;48.810;9.282;2023-02-28T12:19:16;27.60;38.60
1367;DHT22;16877;48.810;9.282;2023-02-28T12:24:49;28.10;37.20
1367;DHT22;16877;48.810;9.282;2023-02-28T12:27:24;28.30;36.50
1367;DHT22;16877;48.810;9.282;2023-02-28T12:29:58;28.50;36.90
1367;DHT22;16877;48.810;9.282;2023-02-28T12:32:29;28.70;36.40
1367;DHT22;16877;48.810;9.282;2023-02-28T12:35:01;28.90;36.40
1367;DHT22;16877;48.810;9.282;2023-02-28T12:37:32;28.60;38.00
1367;DHT22;16877;48.810;9.282;2023-02-28T12:40:06;28.40;37.30
1367;DHT22;16877;48.810;9.282;2023-02-28T12:42:48;28.30;36.10
1367;DHT22;16877;48.810;9.282;2023-02-28T12:45:22;28.20;34.90
1367;DHT22;16877;48.810;9.282;2023-02-28T12:47:55;28.20;34.00
1367;DHT22;16877;48.810;9.282;2023-02-28T12:50:27;28.20;33.40
1367;DHT22;16877;48.810;9.282;2023-02-28T12:53:02;28.20;33.20
1367;DHT22;16877;48.810;9.282;2023-02-28T12:55:37;28.20;32.40
1367;DHT22;16877;48.810;9.282;2023-02-28T12:58:14;28.10;32.20
1367;DHT22;16877;48.810;9.282;2023-02-28T13:00:51;28.10;31.70
1367;DHT22;16877;48.810;9.282;2023-02-28T13:03:42;28.10;31.40
1367;DHT22;16877;48.810;9.282;2023-02-28T13:06:23;28.10;31.00
1367;DHT22;16877;48.810;9.282;2023-02-28T13:09:05;28.00;30.60
1367;DHT22;16877;48.810;9.282;2023-02-28T13:11:39;27.90;30.70
1367;DHT22;16877;48.810;9.282;2023-02-28T13:14:22;28.20;30.80
1367;DHT22;16877;48.810;9.282;2023-02-28T13:16:59;28.30;30.80
1367;DHT22;16877;48.810;9.282;2023-02-28T13:19:29;28.30;31.10
1367;DHT22;16877;48.810;9.282;2023-02-28T13:21:57;28.30;30.90
1367;DHT22;16877;48.810;9.282;2023-02-28T13:24:45;28.50;31.20
1367;DHT22;16877;48.810;9.282;2023-02-28T13:27:36;28.80;31.40
1367;DHT22;16877;48.810;9.282;2023-02-28T13:33:37;29.30;31.50
1367;DHT22;16877;48.810;9.282;2023-02-28T13:36:28;29.40;32.10
1367;DHT22;16877;48.810;9.282;2023-02-28T13:38:57;29.40;31.00
1367;DHT22;16877;48.810;9.282;2023-02-28T13:41:46;29.50;31.00
1367;DHT22;16877;48.810;9.282;2023-02-28T13:44:16;29.60;31.10
1367;DHT22;16877;48.810;9.282;2023-02-28T13:47:23;29.70;30.70
1367;DHT22;16877;48.810;9.282;2023-02-28T13:49:52;29.80;30.70
1367;DHT22;16877;48.810;9.282;2023-02-28T13:52:22;29.90;30.70
1367;DHT22;16877;48.810;9.282;2023-02-28T13:55:11;30.00;30.40
1367;DHT22;16877;48.810;9.282;2023-02-28T13:57:52;30.20;30.90
1367;DHT22;16877;48.810;9.282;2023-02-28T14:00:45;30.40;30.90
1367;DHT22;16877;48.810;9.282;2023-02-28T14:03:30;30.50;30.90
1367;DHT22;16877;48.810;9.282;2023-02-28T14:06:17;30.70;31.00
1367;DHT22;16877;48.810;9.282;2023-02-28T14:08:53;30.80;31.20
1367;DHT22;16877;48.810;9.282;2023-02-28T14:11:29;31.00;31.10
1367;DHT22;16877;48.810;9.282;2023-02-28T14:13:58;31.10;30.80
1367;DHT22;16877;48.810;9.282;2023-02-28T14:16:36;31.20;30.70
1367;DHT22;16877;48.810;9.282;2023-02-28T14:19:11;31.30;30.80
1367;DHT22;16877;48.810;9.282;2023-02-28T14:21:51;31.30;30.80
1367;DHT22;16877;48.810;9.282;2023-02-28T14:24:55;31.50;30.60
1367;DHT22;16877;48.810;9.282;2023-02-28T14:27:37;31.50;30.70
1367;DHT22;16877;48.810;9.282;2023-02-28T14:30:29;31.60;30.60
1367;DHT22;16877;48.810;9.282;2023-02-28T14:33:17;31.50;30.40
1367;DHT22;16877;48.810;9.282;2023-02-28T14:36:00;31.50;30.60
1367;DHT22;16877;48.810;9.282;2023-02-28T14:38:32;31.50;30.90
1367;DHT22;16877;48.810;9.282;2023-02-28T14:41:04;31.60;30.90
1367;DHT22;16877;48.810;9.282;2023-02-28T14:43:32;31.60;30.30
1367;DHT22;16877;48.810;9.282;2023-02-28T14:46:01;31.60;30.30
1367;DHT22;16877;48.810;9.282;2023-02-28T14:48:28;31.70;30.70
1367;DHT22;16877;48.810;9.282;2023-02-28T14:50:58;31.70;30.70
1367;DHT22;16877;48.810;9.282;2023-02-28T14:53:28;31.70;30.60
1367;DHT22;16877;48.810;9.282;2023-02-28T14:55:59;31.80;30.70
1367;DHT22;16877;48.810;9.282;2023-02-28T14:58:27;31.80;30.70
1367;DHT22;16877;48.810;9.282;2023-02-28T15:00:57;31.80;30.70
1367;DHT22;16877;48.810;9.282;2023-02-28T15:03:31;31.90;30.80
1367;DHT22;16877;48.810;9.282;2023-02-28T15:06:02;31.90;30.80
1367;DHT22;16877;48.810;9.282;2023-02-28T15:08:31;31.90;30.70
1367;DHT22;16877;48.810;9.282;2023-02-28T15:11:04;31.80;30.50
1367;DHT22;16877;48.810;9.282;2023-02-28T15:13:37;31.80;31.00
1367;DHT22;16877;48.810;9.282;2023-02-28T15:16:09;31.60;30.90
1367;DHT22;16877;48.810;9.282;2023-02-28T15:18:44;31.50;31.00
1367;DHT22;16877;48.810;9.282;2023-02-28T15:21:22;31.30;31.00
1367;DHT22;16877;48.810;9.282;2023-02-28T15:23:52;31.10;31.10
1367;DHT22;16877;48.810;9.282;2023-02-28T15:26:23;30.90;31.50
1367;DHT22;16877;48.810;9.282;2023-02-28T15:29:15;30.90;31.50
1367;DHT22;16877;48.810;9.282;2023-02-28T15:31:45;30.60;30.80
1367;DHT22;16877;48.810;9.282;2023-02-28T15:34:34;30.50;30.80
1367;DHT22;16877;48.810;9.282;2023-02-28T15:37:05;30.30;30.80
1367;DHT22;16877;48.810;9.282;2023-02-28T15:39:42;30.10;31.40
1367;DHT22;16877;48.810;9.282;2023-02-28T15:42:13;29.90;32.60
1367;DHT22;16877;48.810;9.282;2023-02-28T15:44:45;29.70;33.40
1367;DHT22;16877;48.810;9.282;2023-02-28T15:47:16;29.40;33.30
1367;DHT22;16877;48.810;9.282;2023-02-28T15:49:48;29.20;33.80
1367;DHT22;16877;48.810;9.282;2023-02-28T15:52:18;29.00;34.00
1367;DHT22;16877;48.810;9.282;2023-02-28T15:55:08;28.90;34.00
1367;DHT22;16877;48.810;9.282;2023-02-28T15:57:40;28.70;34.50
1367;DHT22;16877;48.810;9.282;2023-02-28T16:00:12;28.60;34.30
1367;DHT22;16877;48.810;9.282;2023-02-28T16:02:54;28.50;34.60
1367;DHT22;16877;48.810;9.282;2023-02-28T16:05:24;28.40;34.90
1367;DHT22;16877;48.810;9.282;2023-02-28T16:07:58;28.30;34.70
1367;DHT22;16877;48.810;9.282;2023-02-28T16:10:28;28.30;34.80
1367;DHT22;16877;48.810;9.282;2023-02-28T16:12:58;28.10;34.90
1367;DHT22;16877;48.810;9.282;2023-02-28T16:15:39;27.90;35.30
1367;DHT22;16877;48.810;9.282;2023-02-28T16:18:10;27.60;35.40
1367;DHT22;16877;48.810;9.282;2023-02-28T16:20:38;27.40;35.50
1367;DHT22;16877;48.810;9.282;2023-02-28T16:23:06;27.30;35.70
1367;DHT22;16877;48.810;9.282;2023-02-28T16:25:35;27.10;35.80
1367;DHT22;16877;48.810;9.282;2023-02-28T16:28:07;26.90;35.90
1367;DHT22;16877;48.810;9.282;2023-02-28T16:30:36;26.90;35.30
1367;DHT22;16877;48.810;9.282;2023-02-28T16:33:04;26.70;34.30
1367;DHT22;16877;48.810;9.282;2023-02-28T16:35:42;26.50;33.30
1367;DHT22;16877;48.810;9.282;2023-02-28T16:38:09;26.30;32.60